Time;durP1;ratioP1;P1;durP2;ratioP2;P2;SDS_P1;SDS_P2;PMS_P1;PMS_P2;Temp;Humidity;BMP_temperature;BMP_pressure;BME280_temperature;BME280_humidity;BME280_pressure;Samples;Min_cycle;Max_cycle;Signal;HPM_P1;HPM_P2
2020/12/22 00:00:07;;;;;;;0.70;0.60;;;12.00;99.90;;;12.43;100.00;-21019.91;5010086;28;20837;-70
2020/12/22 00:02:42;;;;;;;0.70;0.60;;;12.00;99.90;;;12.43;100.00;-21020.06;5012444;28;20478;-71
2020/12/22 00:05:09;;;;;;;0.70;0.60;;;12.10;99.90;;;12.51;100.00;-21022.25;5012643;28;20446;-71
2020/12/22 00:07:36;;;;;;;0.70;0.63;;;12.00;99.90;;;12.58;100.00;-21024.06;5012172;28;20494;-71
2020/12/22 00:10:04;;;;;;;0.70;0.70;;;12.00;99.90;;;12.55;100.00;-21023.22;5013623;28;20429;-71
2020/12/22 00:12:32;;;;;;;0.70;0.60;;;12.10;99.90;;;12.67;100.00;-21026.41;5013110;28;20487;-71
2020/12/22 00:14:59;;;;;;;0.70;0.60;;;12.20;99.90;;;12.76;100.00;-21028.88;5013161;28;21001;-71
2020/12/22 00:17:26;;;;;;;0.70;0.70;;;12.20;99.90;;;12.80;100.00;-21030.00;5016309;28;20490;-71
2020/12/22 00:19:53;;;;;;;0.70;0.60;;;12.30;99.90;;;12.95;100.00;-21034.13;5016481;28;20475;-71
2020/12/22 00:22:20;;;;;;;0.70;0.60;;;12.40;99.90;;;12.92;100.00;-21033.31;5013983;28;20985;-71
2020/12/22 00:24:47;;;;;;;0.70;0.60;;;12.40;99.90;;;13.11;100.00;-21038.28;4996142;28;20431;-71
2020/12/22 00:27:14;;;;;;;0.70;0.60;;;12.50;99.90;;;13.23;100.00;-21041.72;4997150;28;20954;-71
2020/12/22 00:29:42;;;;;;;0.70;0.70;;;12.60;99.90;;;13.17;100.00;-21039.94;4996838;28;20456;-70
2020/12/22 00:32:09;;;;;;;0.70;0.60;;;12.60;99.90;;;13.26;100.00;-21042.41;5016664;28;20440;-71
2020/12/22 00:34:35;;;;;;;0.70;0.60;;;12.60;99.90;;;13.28;100.00;-21042.97;5015102;28;20552;-72
2020/12/22 00:37:03;;;;;;;0.60;0.60;;;12.70;99.90;;;13.24;100.00;-21041.84;5016709;28;20466;-71
2020/12/22 00:39:31;;;;;;;0.70;0.67;;;12.80;99.90;;;13.42;100.00;-21046.81;5017201;28;20429;-71
2020/12/22 00:41:58;;;;;;;0.63;0.50;;;12.80;99.90;;;13.41;100.00;-21046.41;5016622;28;20421;-71
2020/12/22 00:44:26;;;;;;;0.70;0.60;;;12.80;99.90;;;13.39;100.00;-21046.00;5015917;28;20442;-71
2020/12/22 00:46:54;;;;;;;0.70;0.60;;;12.80;99.90;;;13.43;100.00;-21046.97;5016165;28;20429;-71
2020/12/22 00:49:21;;;;;;;0.67;0.60;;;12.70;99.90;;;13.41;100.00;-21046.41;5016423;28;20449;-71
2020/12/22 00:51:49;;;;;;;0.70;0.60;;;12.70;99.90;;;13.48;100.00;-21048.34;5014748;28;20441;-71
2020/12/22 00:54:16;;;;;;;0.70;0.60;;;12.80;99.90;;;13.47;100.00;-21048.06;5019392;28;20935;-71
2020/12/22 00:56:47;;;;;;;0.70;0.70;;;12.70;99.90;;;13.44;100.00;-21047.38;4996978;28;20455;-71
2020/12/22 00:59:20;;;;;;;0.70;0.60;;;12.70;99.90;;;13.43;100.00;-21047.09;5014548;28;20537;-71
2020/12/22 01:01:46;;;;;;;0.70;0.70;;;12.70;99.90;;;13.40;100.00;-21046.28;5011448;28;20986;-71
2020/12/22 01:04:18;;;;;;;0.70;0.60;;;12.60;99.90;;;13.40;100.00;-21046.13;5015011;28;20556;-71
2020/12/22 01:07:02;;;;;;;0.70;0.60;;;12.50;99.90;;;13.48;100.00;-21048.47;5015676;28;20467;-71
2020/12/22 01:09:29;;;;;;;0.70;0.60;;;12.60;99.90;;;13.45;100.00;-21047.66;5031346;28;20456;-71
2020/12/22 01:11:56;;;;;;;0.70;0.60;;;12.60;99.90;;;13.44;100.00;-21047.38;5016200;28;20778;-72
2020/12/22 01:14:23;;;;;;;0.70;0.60;;;12.60;99.90;;;13.39;100.00;-21045.84;5015946;28;20772;-70
2020/12/22 01:17:17;;;;;;;0.70;0.60;;;12.60;99.90;;;13.37;100.00;-21045.31;5015386;28;20650;-71
2020/12/22 01:19:45;;;;;;;0.70;0.60;;;12.60;99.90;;;13.36;100.00;-21045.16;5008178;28;20514;-69
2020/12/22 01:22:12;;;;;;;0.70;0.60;;;12.60;99.90;;;13.25;100.00;-21042.28;5015960;28;20496;-71
2020/12/22 01:24:39;;;;;;;0.70;0.60;;;12.60;99.90;;;13.12;100.00;-21038.53;5014646;28;20602;-69
2020/12/22 01:27:06;;;;;;;0.70;0.60;;;12.60;99.90;;;13.20;100.00;-21040.75;5015851;28;20429;-70
2020/12/22 01:29:33;;;;;;;1.23;1.13;;;12.60;99.90;;;13.43;100.00;-21047.09;5015795;28;20453;-69
2020/12/22 01:32:00;;;;;;;0.70;0.60;;;12.70;99.90;;;13.43;100.00;-21047.09;5003287;28;20954;-70
2020/12/22 01:34:27;;;;;;;0.70;0.60;;;12.70;99.90;;;13.22;100.00;-21041.31;5018690;28;20510;-70
2020/12/22 01:36:55;;;;;;;0.70;0.60;;;12.60;99.90;;;13.17;100.00;-21040.06;5015055;28;20450;-69
2020/12/22 01:40:33;;;;;;;0.70;0.60;;;12.70;99.90;;;13.24;100.00;-21041.84;5015553;28;20476;-70
2020/12/22 01:43:07;;;;;;;0.70;0.60;;;12.80;99.90;;;13.21;100.00;-21041.03;4922513;29;20453;-71
2020/12/22 01:45:34;;;;;;;0.70;0.60;;;12.80;99.90;;;13.28;100.00;-21043.09;4954988;29;20506;-68
2020/12/22 01:48:01;;;;;;;0.70;0.60;;;12.90;99.90;;;13.30;100.00;-21043.50;4984411;28;20457;-70
2020/12/22 01:50:28;;;;;;;0.70;0.60;;;12.80;99.90;;;13.35;100.00;-21044.88;5011925;28;20508;-69
2020/12/22 01:52:55;;;;;;;0.70;0.60;;;12.90;99.90;;;13.42;100.00;-21046.69;4995935;28;20459;-71
2020/12/22 01:55:22;;;;;;;0.70;0.60;;;13.00;99.90;;;13.58;100.00;-21050.97;4995454;28;20612;-71
2020/12/22 01:57:49;;;;;;;0.70;0.63;;;13.20;99.90;;;13.69;100.00;-21054.00;4995538;28;20441;-71
2020/12/22 02:00:17;;;;;;;0.67;0.60;;;13.20;99.90;;;13.67;100.00;-21053.44;4998886;28;20441;-71
2020/12/22 02:02:44;;;;;;;0.70;0.60;;;13.20;99.90;;;13.69;100.00;-21054.00;5014649;28;20444;-71
2020/12/22 02:05:11;;;;;;;0.63;0.60;;;13.20;99.90;;;13.80;100.00;-21057.03;5014601;28;20529;-71
2020/12/22 02:07:39;;;;;;;0.70;0.60;;;13.20;99.90;;;13.81;100.00;-21057.28;5014443;28;20934;-71
2020/12/22 02:10:07;;;;;;;0.60;0.60;;;13.30;99.90;;;13.89;100.00;-21059.50;5013633;28;20462;-71
2020/12/22 02:12:40;;;;;;;0.70;0.60;;;13.40;99.90;;;13.86;100.00;-21058.66;5014329;28;20440;-71
2020/12/22 02:15:07;;;;;;;0.67;0.50;;;13.30;99.90;;;13.89;100.00;-21059.50;5002640;28;20946;-71
2020/12/22 02:17:35;;;;;;;0.70;0.60;;;13.40;99.90;;;13.99;100.00;-21062.25;5001445;28;20510;-71
2020/12/22 02:20:03;;;;;;;0.70;0.60;;;13.40;99.90;;;14.01;100.00;-21062.81;4994502;28;20968;-71
2020/12/22 02:22:31;;;;;;;0.70;0.63;;;13.60;99.90;;;14.05;100.00;-21063.78;4995175;28;20511;-71
2020/12/22 02:24:58;;;;;;;0.70;0.60;;;13.60;99.90;;;14.16;100.00;-21066.78;4994981;28;20434;-71
2020/12/22 02:27:25;;;;;;;0.60;0.50;;;13.60;99.90;;;14.13;100.00;-21065.84;5002708;28;20441;-70
2020/12/22 02:29:52;;;;;;;0.70;0.70;;;13.60;99.90;;;14.23;100.00;-21068.72;5014317;28;20488;-71
2020/12/22 02:32:19;;;;;;;0.70;0.60;;;13.70;99.90;;;14.34;100.00;-21071.63;5014272;28;20456;-71
2020/12/22 02:34:48;;;;;;;0.70;0.60;;;13.80;99.90;;;14.42;100.00;-21073.81;5014244;28;20489;-70
2020/12/22 02:37:21;;;;;;;0.70;0.60;;;14.00;99.90;;;14.56;100.00;-21077.53;4994695;28;20570;-70
2020/12/22 02:39:49;;;;;;;0.70;0.70;;;14.00;99.90;;;14.60;100.00;-21078.50;4994262;28;20445;-72
2020/12/22 02:42:18;;;;;;;0.70;0.60;;;14.20;99.90;;;14.88;100.00;-21086.22;4994743;28;20533;-72
2020/12/22 02:44:45;;;;;;;0.70;0.60;;;14.40;99.90;;;14.92;100.00;-21087.31;5012739;28;20447;-71
2020/12/22 02:47:15;;;;;;;0.70;0.60;;;14.50;99.90;;;15.17;100.00;-21094.06;5014407;28;20424;-71
2020/12/22 02:49:44;;;;;;;0.70;0.60;;;14.60;99.90;;;15.09;100.00;-21091.84;5010662;28;20485;-72
2020/12/22 02:52:11;;;;;;;0.70;0.60;;;14.60;99.90;;;15.27;100.00;-21096.53;5014211;28;20970;-71
2020/12/22 02:54:38;;;;;;;0.70;0.60;;;14.60;99.90;;;15.19;100.00;-21094.59;5000637;28;20492;-72
2020/12/22 02:57:06;;;;;;;0.70;0.60;;;14.70;99.90;;;15.21;100.00;-21095.00;4994692;28;20961;-72
2020/12/22 02:59:33;;;;;;;0.70;0.60;;;14.70;99.90;;;15.04;100.00;-21090.34;5001280;28;20457;-71
2020/12/22 03:02:00;;;;;;;0.70;0.60;;;14.50;99.90;;;14.80;100.00;-21083.88;5013750;28;20433;-71
2020/12/22 03:04:27;;;;;;;0.70;0.60;;;14.40;99.90;;;14.64;100.00;-21079.59;5013676;28;20453;-68
2020/12/22 03:06:54;;;;;;;0.67;0.60;;;14.30;99.90;;;14.69;100.00;-21081.13;5013808;28;20462;-69
2020/12/22 03:09:21;;;;;;;0.70;0.60;;;14.40;99.90;;;14.53;100.00;-21076.56;5013313;28;20452;-71
2020/12/22 03:11:48;;;;;;;0.70;0.60;;;14.20;99.90;;;14.62;100.00;-21079.06;5029166;28;20437;-71
2020/12/22 03:14:16;;;;;;;0.70;0.70;;;14.20;99.90;;;14.61;100.00;-21078.78;5013853;28;20466;-71
2020/12/22 03:16:43;;;;;;;0.60;0.60;;;14.30;99.90;;;14.68;100.00;-21080.72;5028488;28;20494;-71
2020/12/22 03:19:10;;;;;;;0.70;0.60;;;14.40;99.90;;;14.80;100.00;-21083.88;5013860;28;20453;-71
2020/12/22 03:21:37;;;;;;;0.70;0.60;;;14.40;99.90;;;14.84;100.00;-21085.13;5013937;28;20915;-71
2020/12/22 03:24:04;;;;;;;0.70;0.60;;;14.40;99.90;;;14.78;100.00;-21083.47;5012670;28;20441;-71
2020/12/22 03:26:31;;;;;;;0.70;0.60;;;14.40;99.90;;;14.87;100.00;-21085.78;5013829;28;20472;-71
2020/12/22 03:28:58;;;;;;;0.70;0.60;;;14.50;99.90;;;15.04;100.00;-21090.34;5013603;28;20412;-71
2020/12/22 03:31:26;;;;;;;0.70;0.60;;;14.60;99.90;;;14.83;100.00;-21084.84;5013234;28;20490;-71
2020/12/22 03:33:53;;;;;;;0.70;0.60;;;14.50;99.90;;;14.89;100.00;-21086.34;5028714;28;20450;-71
2020/12/22 03:36:20;;;;;;;0.70;0.60;;;14.50;99.90;;;14.78;100.00;-21083.47;4996270;28;20967;-72
2020/12/22 03:38:51;;;;;;;0.70;0.60;;;14.50;99.90;;;14.96;100.00;-21088.41;4994151;28;20441;-72
2020/12/22 03:42:32;;;;;;;0.70;0.70;;;14.60;99.90;;;14.95;100.00;-21088.00;4992487;28;20450;-72
2020/12/22 03:45:42;;;;;;;0.70;0.60;;;14.50;99.90;;;14.93;100.00;-21087.59;5012843;28;20941;-71
2020/12/22 03:48:10;;;;;;;0.70;0.60;;;14.50;99.90;;;15.03;100.00;-21090.06;5011883;28;20836;-72
2020/12/22 03:50:37;;;;;;;0.70;0.60;;;14.50;99.90;;;14.93;100.00;-21087.59;5013715;28;20521;-72
2020/12/22 03:53:06;;;;;;;0.70;0.60;;;14.50;99.90;;;14.91;100.00;-21086.91;5007077;28;20446;-72
2020/12/22 03:55:33;;;;;;;0.70;0.60;;;14.50;99.90;;;14.97;100.00;-21088.69;5028667;28;20869;-71
2020/12/22 03:57:59;;;;;;;0.80;0.70;;;14.50;99.90;;;15.06;100.00;-21090.88;5017576;28;20448;-72
2020/12/22 04:00:26;;;;;;;0.70;0.70;;;14.50;99.90;;;15.01;100.00;-21089.66;5028818;28;20453;-72
2020/12/22 04:02:53;;;;;;;0.70;0.60;;;14.60;99.90;;;15.01;100.00;-21089.66;5012774;28;20423;-72
2020/12/22 04:05:23;;;;;;;0.70;0.60;;;14.60;99.90;;;14.89;100.00;-21086.34;4997181;28;20441;-72
2020/12/22 04:07:50;;;;;;;0.70;0.60;;;14.50;99.90;;;15.15;100.00;-21093.38;4997650;28;20421;-72
2020/12/22 04:10:16;;;;;;;0.70;0.70;;;14.60;99.90;;;15.22;100.00;-21095.28;4996303;28;20438;-72
2020/12/22 04:12:43;;;;;;;0.70;0.60;;;14.70;99.90;;;15.29;100.00;-21097.22;5015080;28;20964;-72
2020/12/22 04:15:11;;;;;;;0.70;0.60;;;14.70;99.90;;;15.18;100.00;-21094.31;5016010;28;20448;-71
2020/12/22 04:17:41;;;;;;;0.70;0.60;;;14.80;99.90;;;15.22;100.00;-21095.28;5015496;28;20438;-72
2020/12/22 04:20:08;;;;;;;0.70;0.60;;;14.80;99.90;;;15.34;100.00;-21098.59;5016706;28;20965;-70
2020/12/22 04:22:36;;;;;;;0.70;0.70;;;14.90;99.90;;;15.37;100.00;-21099.41;5017047;28;20457;-73
2020/12/22 04:25:04;;;;;;;0.70;0.60;;;14.90;99.90;;;15.27;100.00;-21096.66;5016462;28;20430;-72
2020/12/22 04:27:31;;;;;;;0.70;0.60;;;14.80;99.90;;;15.22;100.00;-21095.28;5015215;28;20437;-71
2020/12/22 04:29:59;;;;;;;0.70;0.60;;;14.80;99.90;;;15.12;100.00;-21092.69;5016756;28;20437;-72
2020/12/22 04:32:26;;;;;;;1.10;1.00;;;14.60;99.90;;;14.89;100.00;-21086.34;5016704;28;20441;-71
2020/12/22 04:34:54;;;;;;;0.70;0.60;;;14.50;99.90;;;14.77;100.00;-21083.19;5016370;28;20545;-71
2020/12/22 04:37:21;;;;;;;0.70;0.60;;;14.40;99.90;;;14.74;100.00;-21082.50;5016622;28;20472;-71
2020/12/22 04:39:49;;;;;;;0.70;0.70;;;14.40;99.90;;;14.65;100.00;-21079.88;5016163;28;20444;-71
2020/12/22 04:42:19;;;;;;;0.70;0.60;;;14.30;99.90;;;14.49;100.00;-21075.75;5016585;28;20430;-72
2020/12/22 04:44:47;;;;;;;0.70;0.60;;;14.20;99.90;;;14.55;100.00;-21077.13;5015908;28;20450;-72
2020/12/22 04:47:16;;;;;;;0.70;0.67;;;14.30;99.90;;;14.57;100.00;-21077.69;5016096;28;20428;-71
2020/12/22 04:49:50;;;;;;;0.70;0.60;;;14.30;99.90;;;14.64;100.00;-21079.59;5016398;28;20979;-71
2020/12/22 04:52:22;;;;;;;0.70;0.60;;;14.30;99.90;;;14.67;100.00;-21080.56;5016337;28;20417;-72
2020/12/22 04:54:50;;;;;;;0.70;0.60;;;14.40;99.90;;;14.73;100.00;-21082.09;5001612;28;21045;-71
2020/12/22 04:57:19;;;;;;;0.70;0.60;;;14.40;99.90;;;14.85;100.00;-21085.38;5009578;28;20470;-72
2020/12/22 04:59:46;;;;;;;0.70;0.60;;;14.50;99.90;;;14.83;100.00;-21084.84;5012825;28;20539;-72
2020/12/22 05:02:15;;;;;;;0.67;0.60;;;14.50;99.90;;;14.86;100.00;-21085.53;5015496;28;20433;-72
2020/12/22 05:04:43;;;;;;;0.70;0.60;;;14.50;99.90;;;14.92;100.00;-21087.31;5015958;28;20463;-71
2020/12/22 05:07:57;;;;;;;0.63;0.60;;;14.60;99.90;;;15.08;100.00;-21091.44;5016209;28;20783;-72
2020/12/22 05:11:05;;;;;;;0.70;0.60;;;14.70;99.90;;;15.05;100.00;-21090.63;4947491;28;20813;-72
2020/12/22 05:13:32;;;;;;;0.60;0.60;;;14.70;99.90;;;15.15;100.00;-21093.38;5016014;28;20435;-71
2020/12/22 05:15:59;;;;;;;0.67;0.60;;;14.80;99.90;;;14.86;100.00;-21085.66;4996611;28;20516;-71
2020/12/22 05:18:27;;;;;;;0.70;0.60;;;14.60;99.90;;;14.87;100.00;-21085.78;4996483;28;20450;-71
2020/12/22 05:25:32;;;;;;;0.70;0.60;;;14.60;99.90;;;15.01;100.00;-21089.66;4828899;29;20460;-71
2020/12/22 05:28:01;;;;;;;0.70;0.63;;;14.60;99.90;;;14.98;100.00;-21088.97;4911581;29;20479;-71
2020/12/22 05:30:29;;;;;;;0.70;0.60;;;14.60;99.90;;;15.18;100.00;-21094.19;4955274;29;20437;-71
2020/12/22 05:32:56;;;;;;;0.70;0.70;;;14.70;99.90;;;15.22;100.00;-21095.44;4954938;29;20463;-72
2020/12/22 05:35:24;;;;;;;0.70;0.60;;;14.90;99.90;;;15.42;100.00;-21100.66;4955425;29;20442;-71
2020/12/22 05:37:52;;;;;;;0.70;0.70;;;14.90;99.90;;;15.39;100.00;-21099.81;4953910;29;20447;-71
2020/12/22 05:40:20;;;;;;;0.70;0.50;;;14.90;99.90;;;15.28;100.00;-21096.94;4955659;28;20448;-72
2020/12/22 05:42:47;;;;;;;0.70;0.60;;;14.80;99.90;;;15.16;100.00;-21093.63;4967352;28;20417;-71
2020/12/22 05:45:15;;;;;;;0.70;0.60;;;14.80;99.90;;;15.32;100.00;-21098.03;4974240;28;20444;-71
2020/12/22 05:47:44;;;;;;;0.70;0.63;;;14.90;99.90;;;15.41;100.00;-21100.50;4965106;28;20495;-71
2020/12/22 05:50:14;;;;;;;0.70;0.60;;;14.90;99.90;;;15.13;100.00;-21092.81;4954954;29;20543;-72
2020/12/22 05:52:43;;;;;;;0.70;0.60;;;14.80;99.90;;;15.31;100.00;-21097.75;4954677;29;20548;-71
2020/12/22 05:55:10;;;;;;;0.70;0.60;;;14.80;99.90;;;15.26;100.00;-21096.38;4964314;28;20460;-71
2020/12/22 05:57:37;;;;;;;0.70;0.50;;;14.80;99.90;;;15.33;100.00;-21098.31;5014780;28;20456;-71
2020/12/22 06:00:14;;;;;;;0.70;0.60;;;14.90;99.90;;;15.29;100.00;-21097.06;4996450;28;20447;-71
2020/12/22 06:02:43;;;;;;;0.70;0.60;;;14.90;99.90;;;15.31;100.00;-21097.75;5014968;28;20819;-72
2020/12/22 06:05:10;;;;;;;0.70;0.60;;;14.80;99.90;;;15.35;100.00;-21098.72;5012680;28;20438;-70
2020/12/22 06:07:38;;;;;;;0.70;0.60;;;14.90;99.90;;;15.36;100.00;-21099.00;5009469;28;20950;-72
2020/12/22 06:10:06;;;;;;;0.70;0.60;;;14.90;99.90;;;15.32;100.00;-21098.03;5011594;28;20459;-71
2020/12/22 06:12:39;;;;;;;0.70;0.60;;;14.80;99.90;;;15.24;100.00;-21095.84;5011981;28;20462;-71
2020/12/22 06:15:48;;;;;;;0.70;0.60;;;14.90;99.90;;;15.37;100.00;-21099.41;5009039;28;20450;-71
2020/12/22 06:18:22;;;;;;;0.70;0.60;;;14.90;99.90;;;15.29;100.00;-21097.22;5007519;28;20535;-70
2020/12/22 06:20:49;;;;;;;0.70;0.60;;;14.80;99.90;;;15.42;100.00;-21100.78;5014583;28;20432;-72
2020/12/22 06:23:19;;;;;;;0.70;0.60;;;14.90;99.90;;;15.53;100.00;-21103.53;5009925;28;20945;-71
2020/12/22 06:25:46;;;;;;;0.70;0.60;;;14.90;99.90;;;15.37;100.00;-21099.28;5005994;28;20942;-72
2020/12/22 06:28:29;;;;;;;0.70;0.60;;;14.90;99.90;;;15.39;100.00;-21099.81;5014262;28;20533;-71
2020/12/22 06:31:20;;;;;;;0.70;0.60;;;15.00;99.90;;;15.45;100.00;-21101.63;5005002;28;20811;-71
2020/12/22 06:33:55;;;;;;;0.70;0.60;;;15.00;99.90;;;15.54;100.00;-21103.81;5014097;28;20524;-71
2020/12/22 06:36:22;;;;;;;0.70;0.60;;;15.00;99.90;;;15.56;100.00;-21104.38;5006648;28;20462;-72
2020/12/22 06:38:55;;;;;;;0.70;0.60;;;15.00;99.90;;;15.60;100.00;-21105.47;5012451;28;20460;-72
2020/12/22 06:41:46;;;;;;;0.70;0.60;;;15.10;99.90;;;15.60;100.00;-21105.47;5002612;28;20438;-72
2020/12/22 06:44:22;;;;;;;0.70;0.60;;;15.00;99.90;;;15.61;100.00;-21105.88;5009197;28;20504;-72
2020/12/22 06:46:51;;;;;;;0.70;0.60;;;14.90;99.90;;;15.28;100.00;-21096.81;4998501;28;20491;-72
2020/12/22 06:49:51;;;;;;;0.70;0.60;;;14.80;99.90;;;15.06;100.00;-21090.88;5012940;28;20831;-73
2020/12/22 06:52:31;;;;;;;0.70;0.60;;;14.70;99.90;;;15.08;100.00;-21091.44;4999595;28;20642;-72
2020/12/22 06:54:59;;;;;;;0.70;0.70;;;14.60;99.90;;;15.01;100.00;-21089.50;5007035;28;20532;-72
2020/12/22 06:57:43;;;;;;;0.70;0.60;;;14.60;99.90;;;15.17;100.00;-21093.91;5001667;28;21031;-72
2020/12/22 07:00:37;;;;;;;0.70;0.60;;;14.80;99.90;;;15.23;100.00;-21095.56;5011779;28;20441;-72
2020/12/22 07:03:14;;;;;;;0.70;0.70;;;14.80;99.90;;;15.33;100.00;-21098.19;5006228;28;20477;-72
2020/12/22 07:06:37;;;;;;;0.70;0.60;;;15.00;99.90;;;15.36;100.00;-21099.13;5013848;28;20448;-70
2020/12/22 07:09:04;;;;;;;0.70;0.50;;;14.90;99.90;;;15.50;100.00;-21102.72;5007046;28;20460;-72
2020/12/22 07:11:37;;;;;;;0.70;0.60;;;14.90;99.90;;;15.36;100.00;-21099.13;5002219;28;20482;-73
2020/12/22 07:14:06;;;;;;;0.70;0.60;;;14.90;99.90;;;15.38;100.00;-21099.69;5012640;28;20452;-73
2020/12/22 07:16:54;;;;;;;0.70;0.60;;;14.80;99.90;;;15.38;100.00;-21099.56;5012234;28;21011;-73
2020/12/22 07:19:30;;;;;;;0.70;0.70;;;14.80;99.90;;;15.26;100.00;-21096.25;5013798;28;20804;-73
2020/12/22 07:21:59;;;;;;;0.70;0.60;;;14.60;99.90;;;14.98;100.00;-21088.81;5013370;28;20445;-73
2020/12/22 07:24:28;;;;;;;0.70;0.60;;;14.50;99.90;;;14.94;100.00;-21087.84;5013950;28;20468;-73
2020/12/22 07:26:56;;;;;;;0.70;0.60;;;14.40;99.90;;;14.86;100.00;-21085.66;5013981;28;20413;-73
2020/12/22 07:29:24;;;;;;;0.70;0.60;;;14.50;99.90;;;14.89;100.00;-21086.50;5013973;28;20459;-73
2020/12/22 07:31:51;;;;;;;0.70;0.60;;;14.40;99.90;;;14.85;100.00;-21085.38;5013470;28;20447;-72
2020/12/22 07:34:20;;;;;;;0.70;0.60;;;14.40;99.90;;;15.01;100.00;-20790.13;5013012;28;20445;-73
2020/12/22 07:36:50;;;;;;;0.63;0.60;;;14.40;99.90;;;14.93;100.00;-20727.44;5009661;28;20460;-73
2020/12/22 07:39:22;;;;;;;0.70;0.70;;;14.40;99.90;;;14.97;100.00;-20965.75;5006126;28;20478;-73
2020/12/22 07:41:54;;;;;;;0.70;0.60;;;14.60;99.90;;;14.96;100.00;-20829.28;5013321;28;20448;-72
2020/12/22 07:44:23;;;;;;;0.70;0.60;;;14.50;99.90;;;14.93;100.00;-20631.75;5012726;28;20434;-72
2020/12/22 07:46:54;;;;;;;0.70;0.60;;;14.40;99.90;;;14.89;100.00;-20469.25;5013334;28;20410;-73
2020/12/22 07:49:22;;;;;;;0.70;0.60;;;14.30;99.90;;;14.92;100.00;-20510.41;5013604;28;20452;-72
2020/12/22 07:51:51;;;;;;;0.70;0.60;;;14.40;99.90;;;14.94;100.00;-20750.41;5017931;28;20443;-72
2020/12/22 07:54:20;;;;;;;0.70;0.70;;;14.60;99.90;;;15.05;100.00;-20836.47;4997298;28;20414;-72
2020/12/22 07:56:51;;;;;;;0.70;0.60;;;14.50;99.90;;;15.02;100.00;-20992.06;5011588;28;20839;-72
2020/12/22 07:59:23;;;;;;;0.70;0.60;;;14.50;99.90;;;15.00;100.00;-20978.91;5008308;28;20441;-73
2020/12/22 08:01:51;;;;;;;0.70;0.60;;;14.50;99.90;;;15.03;100.00;-21045.28;5011700;28;20853;-72
2020/12/22 08:04:21;;;;;;;0.70;0.60;;;14.50;99.90;;;15.14;100.00;-21071.16;5013469;28;20834;-72
2020/12/22 08:07:01;;;;;;;0.70;0.60;;;14.50;99.90;;;15.13;100.00;-21092.81;5012918;28;20451;-72
2020/12/22 08:09:33;;;;;;;0.70;0.60;;;14.60;99.90;;;15.12;100.00;-21092.53;5012170;28;20567;-72
2020/12/22 08:12:04;;;;;;;0.70;0.60;;;14.60;99.90;;;15.00;100.00;-21006.63;5011294;28;20786;-72
2020/12/22 08:14:33;;;;;;;0.70;0.60;;;14.40;99.90;;;15.02;100.00;-20853.31;5028191;28;20449;-72
2020/12/22 08:17:03;;;;;;;0.70;0.60;;;14.40;99.90;;;14.86;100.00;-20478.41;5013223;28;20533;-72
2020/12/22 08:19:34;;;;;;;0.70;0.60;;;14.40;99.90;;;14.85;100.00;-20190.75;5011192;28;20458;-71
2020/12/22 08:22:06;;;;;;;0.70;0.60;;;14.30;99.90;;;14.84;100.00;-19857.56;4995404;28;20429;-72
2020/12/22 08:24:36;;;;;;;0.70;0.60;;;14.30;99.90;;;14.82;100.00;-19912.53;4993993;28;20413;-72
2020/12/22 08:27:07;;;;;;;0.70;0.60;;;14.40;99.90;;;14.91;100.00;-19990.53;4993568;28;20419;-72
2020/12/22 08:29:38;;;;;;;0.70;0.60;;;14.50;99.90;;;14.96;100.00;-20059.94;5002121;28;20441;-71
2020/12/22 08:32:07;;;;;;;0.70;0.60;;;14.60;99.90;;;14.95;100.00;-19895.69;5005291;28;21000;-72
2020/12/22 08:34:35;;;;;;;0.70;0.60;;;14.50;99.90;;;15.04;100.00;-20147.66;5013281;28;20783;-72
2020/12/22 08:37:09;;;;;;;0.70;0.60;;;14.50;99.90;;;15.12;100.00;-20227.94;5013923;28;20871;-72
2020/12/22 08:39:39;;;;;;;0.70;0.70;;;14.60;99.90;;;15.15;100.00;-20627.28;5016736;28;20434;-72
2020/12/22 08:42:08;;;;;;;0.70;0.60;;;14.60;99.90;;;15.27;100.00;-21049.22;5016736;28;20434;-72
2020/12/22 08:44:39;;;;;;;0.70;0.60;;;14.80;99.90;;;15.25;100.00;-21095.97;5008088;28;20450;-72
2020/12/22 08:47:11;;;;;;;0.70;0.60;;;14.80;99.90;;;15.30;100.00;-21097.50;5021700;28;20430;-72
2020/12/22 08:49:39;;;;;;;0.70;0.60;;;14.90;99.90;;;15.36;100.00;-21099.00;5022525;28;20832;-72
2020/12/22 08:52:14;;;;;;;0.70;0.60;;;14.90;99.90;;;15.34;100.00;-21098.44;5016179;28;20953;-71
2020/12/22 08:54:43;;;;;;;0.70;0.60;;;14.90;99.90;;;15.27;100.00;-21096.53;5016322;28;20943;-71
2020/12/22 08:57:13;;;;;;;0.70;0.60;;;14.70;99.90;;;15.36;100.00;-21099.13;5031418;28;20468;-72
2020/12/22 08:59:40;;;;;;;0.70;0.60;;;14.80;99.90;;;15.30;100.00;-21097.50;5021011;28;20450;-72
2020/12/22 09:02:25;;;;;;;0.70;0.60;;;14.80;99.90;;;15.45;100.00;-21101.63;5030160;28;20489;-72
2020/12/22 09:04:53;;;;;;;0.70;0.60;;;14.90;99.90;;;15.44;100.00;-21101.34;5011573;28;20457;-72
2020/12/22 09:07:25;;;;;;;0.70;0.60;;;14.80;99.90;;;15.53;100.00;-21103.53;5014799;28;20429;-71
2020/12/22 09:09:54;;;;;;;0.70;0.63;;;14.90;99.90;;;15.54;100.00;-21103.94;5010349;28;20433;-71
2020/12/22 09:12:27;;;;;;;0.70;0.60;;;14.90;99.90;;;15.76;100.00;-21109.72;5015875;28;20472;-72
2020/12/22 09:14:58;;;;;;;0.80;0.80;;;15.00;99.90;;;15.75;100.00;-21109.59;5015379;28;20472;-71
2020/12/22 09:17:29;;;;;;;0.70;0.60;;;15.10;99.90;;;15.76;100.00;-21109.88;5013452;28;20517;-72
2020/12/22 09:19:57;;;;;;;0.70;0.60;;;15.10;99.90;;;15.87;100.00;-21112.88;5015544;28;20446;-72
2020/12/22 09:22:27;;;;;;;0.70;0.60;;;15.20;99.90;;;15.72;100.00;-21108.75;5010494;28;20447;-71
2020/12/22 09:24:55;;;;;;;0.70;0.60;;;15.20;99.90;;;16.04;100.00;-21117.28;5010372;28;20442;-72
2020/12/22 09:27:29;;;;;;;0.70;0.60;;;15.20;99.90;;;16.14;100.00;-21120.16;5015415;28;20946;-72
2020/12/22 09:29:57;;;;;;;0.70;0.60;;;15.20;99.90;;;16.06;100.00;-21117.84;5006296;28;20922;-72
2020/12/22 09:32:25;;;;;;;0.70;0.60;;;15.20;99.90;;;15.88;100.00;-21113.03;5008057;28;20445;-72
2020/12/22 09:34:54;;;;;;;0.70;0.60;;;15.10;99.90;;;15.84;100.00;-21112.06;5010113;28;20561;-72
2020/12/22 09:37:23;;;;;;;0.70;0.60;;;15.10;99.90;;;15.61;100.00;-21105.72;5004652;28;20457;-72
2020/12/22 09:39:52;;;;;;;0.70;0.60;;;15.10;99.90;;;15.68;100.00;-21107.81;5013782;28;20446;-72
2020/12/22 09:42:22;;;;;;;0.70;0.60;;;15.00;99.90;;;15.74;100.00;-21109.31;5013023;28;20787;-72
2020/12/22 09:44:51;;;;;;;0.70;0.60;;;15.00;99.90;;;15.82;100.00;-21111.50;5014440;28;20445;-71
2020/12/22 09:47:19;;;;;;;0.70;0.60;;;15.00;99.90;;;15.98;100.00;-21115.63;5014972;28;20420;-71
2020/12/22 09:49:47;;;;;;;0.70;0.60;;;15.10;99.90;;;16.04;100.00;-21117.28;5015186;28;20442;-72
2020/12/22 09:52:15;;;;;;;0.70;0.70;;;15.10;99.90;;;16.01;100.00;-21116.47;5013775;28;20452;-71
2020/12/22 09:54:43;;;;;;;0.70;0.60;;;15.10;99.90;;;16.05;100.00;-21117.56;5015145;28;20445;-72
2020/12/22 09:57:12;;;;;;;0.70;0.60;;;15.10;99.90;;;16.14;100.00;-21120.03;5015507;28;20861;-71
2020/12/22 09:59:39;;;;;;;0.70;0.70;;;15.10;99.90;;;15.92;100.00;-21114.25;5014483;28;20730;-71
2020/12/22 10:02:08;;;;;;;0.70;0.60;;;15.10;99.90;;;15.93;100.00;-21114.41;5010918;28;20988;-72
2020/12/22 10:04:38;;;;;;;0.70;0.60;;;15.10;99.90;;;15.63;100.00;-21106.28;5013020;28;20465;-72
2020/12/22 10:07:06;;;;;;;0.70;0.60;;;15.10;99.90;;;15.88;100.00;-21113.16;5005625;28;20432;-72
2020/12/22 10:09:33;;;;;;;0.70;0.60;;;15.10;99.90;;;16.07;100.00;-21118.09;5014708;28;20508;-72
2020/12/22 10:12:03;;;;;;;0.70;0.60;;;15.20;99.90;;;16.27;100.00;-21123.47;5014801;28;20449;-72
2020/12/22 10:14:32;;;;;;;0.70;0.60;;;15.30;99.90;;;16.33;100.00;-21125.25;5029338;28;20529;-71
2020/12/22 10:17:00;;;;;;;0.70;0.60;;;15.50;99.90;;;16.34;100.00;-21125.53;5013655;28;20439;-71
2020/12/22 10:19:27;;;;;;;0.70;0.60;;;15.50;99.90;;;16.54;100.00;-21130.75;5009363;28;20452;-71
2020/12/22 10:21:55;;;;;;;0.70;0.60;;;15.50;99.90;;;16.62;100.00;-21132.94;5013125;28;20950;-72
2020/12/22 10:24:35;;;;;;;0.70;0.60;;;15.60;99.90;;;16.66;100.00;-21134.03;5012865;28;20473;-71